Time;durP1;ratioP1;P1;durP2;ratioP2;P2;SDS_P1;SDS_P2;PMS_P1;PMS_P2;Temp;Humidity;BMP_temperature;BMP_pressure;BME280_temperature;BME280_humidity;BME280_pressure;Samples;Min_cycle;Max_cycle;Signal;HPM_P1;HPM_P2
2023/07/27 00:01:04;;;;;;;3.00;1.65;;;16.50;99.90;;;;;;4917611;28;20049;-74
2023/07/27 00:03:31;;;;;;;2.90;1.40;;;16.60;99.90;;;;;;4934947;28;20516;-74
2023/07/27 00:05:57;;;;;;;3.05;1.40;;;16.60;99.90;;;;;;4953845;28;20039;-74
2023/07/27 00:08:23;;;;;;;3.20;1.40;;;16.60;99.90;;;;;;4944902;28;20034;-75
2023/07/27 00:10:49;;;;;;;2.80;1.58;;;16.60;99.90;;;;;;4960476;28;20031;-74
2023/07/27 00:13:17;;;;;;;1.67;1.02;;;16.60;99.90;;;;;;4960923;28;20031;-73
2023/07/27 00:15:43;;;;;;;2.38;1.13;;;16.60;99.90;;;;;;4958546;28;20035;-74
2023/07/27 00:18:09;;;;;;;2.00;1.10;;;16.60;99.90;;;;;;4944175;28;20512;-74
2023/07/27 00:20:35;;;;;;;2.35;1.17;;;16.60;99.90;;;;;;4960502;28;20039;-74
2023/07/27 00:23:02;;;;;;;2.00;1.05;;;16.60;99.90;;;;;;4944046;28;20030;-74
2023/07/27 00:25:28;;;;;;;2.65;0.90;;;16.60;99.90;;;;;;4944362;28;20042;-74
2023/07/27 00:27:54;;;;;;;2.42;1.00;;;16.60;99.90;;;;;;4958275;28;21082;-74
2023/07/27 00:30:21;;;;;;;1.90;1.23;;;16.60;99.90;;;;;;4960357;28;20050;-74
2023/07/27 00:32:47;;;;;;;2.45;1.30;;;16.60;99.90;;;;;;4945289;28;20031;-74
2023/07/27 00:35:13;;;;;;;2.08;1.13;;;16.60;99.90;;;;;;4941416;28;20035;-74
2023/07/27 00:37:40;;;;;;;1.58;0.77;;;16.60;99.90;;;;;;4926219;28;20035;-74
2023/07/27 00:40:07;;;;;;;2.50;1.30;;;16.60;99.90;;;;;;4945137;28;20050;-74
2023/07/27 00:42:33;;;;;;;1.60;1.00;;;16.70;99.90;;;;;;4910932;28;20552;-74
2023/07/27 00:45:00;;;;;;;2.03;1.15;;;16.60;99.90;;;;;;4926990;28;20038;-74
2023/07/27 00:47:26;;;;;;;1.88;1.08;;;16.60;99.90;;;;;;4960081;28;20038;-74
2023/07/27 00:49:53;;;;;;;1.80;1.02;;;16.60;99.90;;;;;;4963201;28;20035;-74
2023/07/27 00:52:19;;;;;;;1.77;0.90;;;16.60;99.90;;;;;;4929073;28;20039;-75
2023/07/27 00:54:48;;;;;;;2.60;1.30;;;16.60;99.90;;;;;;4946144;28;20035;-75
2023/07/27 00:57:14;;;;;;;2.25;1.17;;;16.60;99.90;;;;;;4961425;28;20041;-74
2023/07/27 00:59:41;;;;;;;2.00;1.00;;;16.60;99.90;;;;;;4927053;28;20432;-75
2023/07/27 01:02:07;;;;;;;2.92;1.42;;;16.60;99.90;;;;;;4945390;28;20042;-75
2023/07/27 01:04:34;;;;;;;2.40;1.80;;;16.50;99.90;;;;;;4912437;28;20038;-75
2023/07/27 01:07:00;;;;;;;5.68;2.83;;;16.50;99.90;;;;;;4952708;28;20042;-74
2023/07/27 01:09:27;;;;;;;3.33;2.28;;;16.40;99.90;;;;;;4930890;28;20038;-74
2023/07/27 01:11:56;;;;;;;5.07;2.10;;;16.30;99.90;;;;;;4941017;28;20041;-74
2023/07/27 01:14:36;;;;;;;2.70;1.98;;;16.20;99.90;;;;;;4940753;28;20038;-73
2023/07/27 01:17:22;;;;;;;4.18;1.73;;;16.20;99.90;;;;;;4929275;28;20638;-73
2023/07/27 01:20:00;;;;;;;2.58;1.70;;;16.10;99.90;;;;;;4956605;28;20039;-74
2023/07/27 01:22:32;;;;;;;3.78;2.10;;;16.10;99.90;;;;;;4939464;28;20058;-74
2023/07/27 01:25:02;;;;;;;4.28;2.55;;;16.10;99.90;;;;;;4966332;28;20034;-75
2023/07/27 01:27:46;;;;;;;3.28;2.05;;;16.00;99.90;;;;;;4921964;28;20063;-75
2023/07/27 01:30:28;;;;;;;3.40;2.00;;;16.00;99.90;;;;;;4963511;28;20030;-75
2023/07/27 01:33:00;;;;;;;4.38;2.90;;;15.90;99.90;;;;;;4938119;28;20035;-75
2023/07/27 01:35:33;;;;;;;2.90;2.15;;;15.90;99.90;;;;;;4933233;28;20042;-73
2023/07/27 01:38:03;;;;;;;5.05;2.70;;;15.80;99.90;;;;;;4941253;28;20034;-72
2023/07/27 01:40:30;;;;;;;5.43;3.08;;;15.80;99.90;;;;;;4939696;28;20508;-72
2023/07/27 01:42:57;;;;;;;5.07;2.95;;;15.80;99.90;;;;;;4937688;28;20058;-72
2023/07/27 01:45:24;;;;;;;3.63;2.50;;;15.70;99.90;;;;;;4955605;28;20033;-71
2023/07/27 01:47:52;;;;;;;3.22;2.00;;;15.70;99.90;;;;;;4925438;28;20398;-71
2023/07/27 01:50:19;;;;;;;3.33;2.22;;;15.70;99.90;;;;;;4948879;28;20042;-71
2023/07/27 01:52:47;;;;;;;3.05;2.17;;;15.70;99.90;;;;;;4938875;28;20039;-71
2023/07/27 01:55:15;;;;;;;4.22;3.03;;;15.70;99.90;;;;;;4934864;28;20038;-71
2023/07/27 01:57:44;;;;;;;3.65;2.28;;;15.70;99.90;;;;;;4964679;28;20038;-71
2023/07/27 02:00:12;;;;;;;2.90;1.77;;;15.60;99.90;;;;;;4923736;28;20046;-72
2023/07/27 02:02:42;;;;;;;3.17;2.40;;;15.60;99.90;;;;;;4967774;28;20031;-71
2023/07/27 02:05:09;;;;;;;3.83;2.95;;;15.60;99.90;;;;;;4941380;28;20484;-71
2023/07/27 02:07:36;;;;;;;3.05;2.13;;;15.60;99.90;;;;;;4925545;28;20049;-71
2023/07/27 02:10:03;;;;;;;5.38;3.70;;;15.60;99.90;;;;;;4922462;28;20071;-71
2023/07/27 02:12:35;;;;;;;5.53;3.17;;;15.60;99.90;;;;;;4906458;28;20035;-71
2023/07/27 02:15:07;;;;;;;2.95;2.10;;;15.50;99.90;;;;;;4936191;28;20418;-71
2023/07/27 02:17:39;;;;;;;3.08;2.60;;;15.50;99.90;;;;;;4953671;28;20474;-71
2023/07/27 02:20:16;;;;;;;;;;;15.50;99.90;;;;;;4940145;28;20050;-71
2023/07/27 02:22:44;;;;;;;5.13;3.55;;;15.50;99.90;;;;;;4950008;28;20312;-72
2023/07/27 02:25:11;;;;;;;4.07;3.25;;;15.50;99.90;;;;;;4947266;28;20043;-71
2023/07/27 02:27:38;;;;;;;4.05;2.70;;;15.50;99.90;;;;;;4937866;28;20034;-71
2023/07/27 02:30:05;;;;;;;4.03;3.40;;;15.50;99.90;;;;;;4924354;28;20723;-71
2023/07/27 02:32:32;;;;;;;5.30;3.30;;;15.40;99.90;;;;;;4967720;28;20033;-72
2023/07/27 02:34:59;;;;;;;6.95;5.32;;;15.40;99.90;;;;;;4940509;28;20038;-71
2023/07/27 02:37:26;;;;;;;4.88;3.67;;;15.40;99.90;;;;;;4937035;28;20065;-71
2023/07/27 02:39:52;;;;;;;5.18;3.50;;;15.40;99.90;;;;;;4936300;28;20039;-71
2023/07/27 02:42:18;;;;;;;4.32;3.50;;;15.40;99.90;;;;;;4936125;28;20043;-71
2023/07/27 02:44:45;;;;;;;5.30;3.55;;;15.40;99.90;;;;;;4908237;28;20039;-71
2023/07/27 02:47:11;;;;;;;5.28;3.50;;;15.50;99.90;;;;;;4938625;28;20031;-72
2023/07/27 02:49:38;;;;;;;5.35;4.43;;;15.50;99.90;;;;;;4939776;28;20059;-72
2023/07/27 02:52:04;;;;;;;5.68;4.03;;;15.50;99.90;;;;;;4924173;28;20061;-72
2023/07/27 02:54:31;;;;;;;5.35;4.03;;;15.50;99.90;;;;;;4944617;28;20039;-72
2023/07/27 02:56:58;;;;;;;6.95;3.92;;;15.40;99.90;;;;;;4934130;28;20042;-72
2023/07/27 02:59:30;;;;;;;6.30;5.03;;;15.40;99.90;;;;;;4933088;28;20047;-72
2023/07/27 03:01:57;;;;;;;7.90;6.03;;;15.40;99.90;;;;;;4938660;28;20626;-72
2023/07/27 03:04:28;;;;;;;7.47;5.65;;;15.40;99.90;;;;;;4941047;28;20035;-72
2023/07/27 03:06:54;;;;;;;9.00;6.30;;;15.40;99.90;;;;;;4939859;28;20037;-72
2023/07/27 03:09:22;;;;;;;7.55;6.50;;;15.40;99.90;;;;;;4964236;28;20595;-72
2023/07/27 03:11:49;;;;;;;10.20;7.78;;;15.40;99.90;;;;;;4921172;28;20039;-72
2023/07/27 03:14:16;;;;;;;9.63;7.72;;;15.30;99.90;;;;;;4955053;28;20409;-72
2023/07/27 03:16:42;;;;;;;10.30;8.02;;;15.30;99.90;;;;;;4936569;28;20367;-72
2023/07/27 03:19:08;;;;;;;10.00;8.73;;;15.30;99.90;;;;;;4943270;28;20485;-72
2023/07/27 03:21:35;;;;;;;10.13;8.27;;;15.30;99.90;;;;;;4934818;28;20046;-72
2023/07/27 03:24:01;;;;;;;10.25;7.90;;;15.30;99.90;;;;;;4920668;28;20031;-72
2023/07/27 03:26:28;;;;;;;10.80;8.70;;;15.30;99.90;;;;;;4935637;28;20891;-72
2023/07/27 03:28:54;;;;;;;12.05;8.23;;;15.20;99.90;;;;;;4922839;28;20031;-72
2023/07/27 03:31:23;;;;;;;12.90;9.60;;;15.20;99.90;;;;;;4936023;28;20042;-72
2023/07/27 03:33:51;;;;;;;12.18;9.60;;;15.20;99.90;;;;;;4938260;28;20046;-72
2023/07/27 03:36:19;;;;;;;14.82;10.70;;;15.20;99.90;;;;;;4937621;28;20043;-72
2023/07/27 03:38:47;;;;;;;14.30;11.23;;;15.20;99.90;;;;;;4934931;28;20035;-72
2023/07/27 03:41:13;;;;;;;20.50;15.32;;;15.10;99.90;;;;;;4935820;28;20962;-72
2023/07/27 03:43:40;;;;;;;16.52;13.35;;;15.10;99.90;;;;;;4960878;28;20043;-73
2023/07/27 03:46:07;;;;;;;15.10;12.60;;;15.10;99.90;;;;;;4946218;28;20035;-72
2023/07/27 03:48:33;;;;;;;19.10;14.68;;;15.10;99.90;;;;;;4964340;28;20039;-72
2023/07/27 03:51:00;;;;;;;16.30;13.68;;;15.10;99.90;;;;;;4926605;28;20044;-72
2023/07/27 03:53:27;;;;;;;20.33;15.18;;;15.10;99.90;;;;;;4949787;28;20379;-72
2023/07/27 03:55:54;;;;;;;17.50;13.57;;;15.00;99.90;;;;;;4936057;28;20050;-72
2023/07/27 03:58:22;;;;;;;21.75;17.00;;;15.00;99.90;;;;;;4947756;28;20038;-72
2023/07/27 04:00:48;;;;;;;25.33;17.42;;;15.00;99.90;;;;;;4943793;28;20034;-73
2023/07/27 04:03:15;;;;;;;19.85;15.80;;;15.00;99.90;;;;;;4923293;28;20035;-72
2023/07/27 04:05:41;;;;;;;21.45;17.60;;;15.00;99.90;;;;;;4936449;28;20023;-72
2023/07/27 04:08:07;;;;;;;23.27;17.13;;;15.00;99.90;;;;;;4907978;28;20393;-72
2023/07/27 04:10:34;;;;;;;18.65;15.68;;;15.00;99.90;;;;;;4925225;28;20039;-72
2023/07/27 04:13:00;;;;;;;22.63;18.13;;;14.90;99.90;;;;;;4936994;28;20038;-72
2023/07/27 04:15:26;;;;;;;24.33;17.73;;;15.00;99.90;;;;;;4957331;28;20371;-72
2023/07/27 04:17:53;;;;;;;21.00;16.75;;;14.90;99.90;;;;;;4940472;28;20034;-73
2023/07/27 04:20:19;;;;;;;21.42;16.15;;;15.00;99.90;;;;;;4957445;28;20493;-72
2023/07/27 04:22:46;;;;;;;22.88;15.50;;;14.90;99.90;;;;;;4925505;28;20043;-72
2023/07/27 04:25:12;;;;;;;16.15;13.43;;;15.00;99.90;;;;;;4957560;28;20038;-72
2023/07/27 04:27:38;;;;;;;17.35;13.05;;;15.00;99.90;;;;;;4939785;28;20042;-72
2023/07/27 04:30:06;;;;;;;17.38;14.18;;;15.00;99.90;;;;;;4939741;28;20035;-72
2023/07/27 04:32:32;;;;;;;20.63;16.25;;;15.00;99.90;;;;;;4937957;28;20409;-72
2023/07/27 04:34:59;;;;;;;24.80;16.27;;;15.00;99.90;;;;;;4938693;28;20498;-72
2023/07/27 04:37:25;;;;;;;16.67;12.45;;;14.90;99.90;;;;;;4953681;28;20042;-72
2023/07/27 04:39:51;;;;;;;14.02;11.43;;;14.90;99.90;;;;;;4942912;28;20411;-72
2023/07/27 04:42:18;;;;;;;17.75;13.32;;;14.90;99.90;;;;;;4923357;28;21345;-73
2023/07/27 04:44:44;;;;;;;15.50;11.65;;;14.90;99.90;;;;;;4927763;28;20043;-72
2023/07/27 04:47:10;;;;;;;12.13;10.52;;;14.90;99.90;;;;;;4951919;28;20041;-72
2023/07/27 04:49:37;;;;;;;15.60;11.93;;;14.90;99.90;;;;;;4938649;28;20039;-72
2023/07/27 04:52:03;;;;;;;14.20;11.15;;;14.90;99.90;;;;;;4937870;28;20046;-72
2023/07/27 04:54:30;;;;;;;11.48;10.27;;;14.90;99.90;;;;;;4942564;28;20039;-72
2023/07/27 04:56:56;;;;;;;12.73;10.07;;;14.90;99.90;;;;;;4940394;28;20034;-72
2023/07/27 04:59:22;;;;;;;11.52;9.45;;;14.90;99.90;;;;;;4959958;28;20031;-72
2023/07/27 05:01:49;;;;;;;13.68;11.10;;;15.00;99.90;;;;;;4946274;28;20041;-72
2023/07/27 05:04:15;;;;;;;15.13;11.48;;;14.90;99.90;;;;;;4942786;28;20398;-72
2023/07/27 05:06:41;;;;;;;12.93;9.95;;;14.90;99.90;;;;;;4943047;28;20038;-72
2023/07/27 05:09:08;;;;;;;10.52;8.95;;;14.90;99.90;;;;;;4928320;28;20027;-72
2023/07/27 05:11:35;;;;;;;11.13;8.07;;;14.90;99.90;;;;;;4926367;28;20397;-72
2023/07/27 05:14:02;;;;;;;13.90;10.25;;;15.00;99.90;;;;;;4961686;28;20366;-71
2023/07/27 05:16:29;;;;;;;12.73;10.00;;;15.00;99.90;;;;;;4944036;28;20031;-72
2023/07/27 05:18:57;;;;;;;13.75;9.48;;;15.00;99.90;;;;;;4943471;28;20374;-72
2023/07/27 05:21:24;;;;;;;12.68;8.95;;;15.00;99.90;;;;;;4924625;28;20053;-71
2023/07/27 05:23:50;;;;;;;13.85;10.10;;;15.00;99.90;;;;;;4942523;28;20046;-72
2023/07/27 05:26:16;;;;;;;10.80;8.95;;;15.00;99.90;;;;;;4941117;28;20038;-72
2023/07/27 05:28:45;;;;;;;12.52;9.93;;;15.00;99.90;;;;;;4960832;28;20050;-72
2023/07/27 05:31:11;;;;;;;9.63;8.45;;;15.00;99.90;;;;;;4930766;28;20049;-72
2023/07/27 05:33:37;;;;;;;9.43;8.43;;;15.10;99.90;;;;;;4958584;28;20043;-73
2023/07/27 05:36:04;;;;;;;8.27;7.43;;;15.10;99.90;;;;;;4912885;28;20046;-72
2023/07/27 05:38:30;;;;;;;10.88;8.15;;;15.10;99.90;;;;;;4940409;28;20027;-72
2023/07/27 05:41:00;;;;;;;11.55;8.35;;;15.10;99.90;;;;;;4928187;28;20031;-72
2023/07/27 05:43:27;;;;;;;9.57;8.18;;;15.20;99.90;;;;;;4958768;28;20043;-72
2023/07/27 05:45:53;;;;;;;7.60;6.75;;;15.10;99.90;;;;;;4956526;28;20039;-72
2023/07/27 05:48:20;;;;;;;8.38;6.63;;;15.20;99.90;;;;;;4943446;28;20038;-72
2023/07/27 05:50:46;;;;;;;8.20;5.80;;;15.20;99.90;;;;;;4958081;28;20034;-72
2023/07/27 05:53:12;;;;;;;6.70;5.80;;;15.20;99.90;;;;;;4926060;28;20039;-72
2023/07/27 05:55:39;;;;;;;7.75;6.25;;;15.30;99.90;;;;;;4943941;28;20279;-72
2023/07/27 05:58:06;;;;;;;10.13;8.00;;;15.20;99.90;;;;;;4943251;28;20035;-72
2023/07/27 06:00:32;;;;;;;5.88;5.28;;;15.30;99.90;;;;;;4940232;28;20398;-72
2023/07/27 06:02:58;;;;;;;6.20;5.45;;;15.30;99.90;;;;;;4960198;28;20042;-72
2023/07/27 06:05:25;;;;;;;6.00;5.40;;;15.30;99.90;;;;;;4925894;28;20142;-72
2023/07/27 06:07:51;;;;;;;6.57;5.70;;;15.30;99.90;;;;;;4941248;28;20037;-72
2023/07/27 06:10:17;;;;;;;7.28;6.07;;;15.30;99.90;;;;;;4957923;28;20043;-72
2023/07/27 06:12:44;;;;;;;5.90;5.25;;;15.40;99.90;;;;;;4940303;28;20042;-72
2023/07/27 06:15:10;;;;;;;6.60;5.85;;;15.40;99.90;;;;;;4961359;28;20501;-72
2023/07/27 06:17:37;;;;;;;5.40;4.45;;;15.50;99.90;;;;;;4960637;28;20073;-72
2023/07/27 06:20:05;;;;;;;9.57;7.20;;;15.40;99.90;;;;;;4936022;28;20034;-72
2023/07/27 06:22:31;;;;;;;6.70;5.55;;;15.50;99.90;;;;;;4956037;28;20039;-72
2023/07/27 06:24:57;;;;;;;9.98;7.30;;;15.50;99.90;;;;;;4941155;28;20409;-72
2023/07/27 06:27:24;;;;;;;6.75;5.75;;;15.50;99.90;;;;;;4925677;28;20618;-72
2023/07/27 06:29:50;;;;;;;5.25;4.75;;;15.50;99.90;;;;;;4956145;28;20050;-72
2023/07/27 06:32:16;;;;;;;5.82;4.75;;;15.50;99.90;;;;;;4939637;28;20038;-72
2023/07/27 06:34:43;;;;;;;5.53;4.38;;;15.60;99.90;;;;;;4954576;28;20377;-72
2023/07/27 06:37:09;;;;;;;5.68;4.30;;;15.60;99.90;;;;;;4940355;28;20512;-72
2023/07/27 06:39:36;;;;;;;4.82;4.15;;;15.60;99.90;;;;;;4938365;28;20035;-71
2023/07/27 06:42:02;;;;;;;4.35;3.78;;;15.60;99.90;;;;;;4938909;28;20043;-72
2023/07/27 06:44:32;;;;;;;5.25;3.20;;;15.70;99.90;;;;;;4960152;28;20035;-72
2023/07/27 06:46:58;;;;;;;3.35;3.03;;;15.70;99.90;;;;;;4940130;28;20043;-72
2023/07/27 06:49:24;;;;;;;3.53;3.22;;;15.70;99.90;;;;;;4941860;28;20035;-72
2023/07/27 06:51:51;;;;;;;4.15;3.15;;;15.80;99.90;;;;;;4958072;28;20035;-72
2023/07/27 06:54:18;;;;;;;3.70;3.40;;;15.80;99.90;;;;;;4956193;28;20038;-72
2023/07/27 06:56:44;;;;;;;2.70;2.50;;;15.80;99.90;;;;;;4948127;28;20027;-72
2023/07/27 06:59:11;;;;;;;4.28;3.75;;;15.80;99.90;;;;;;4941568;28;20043;-72
2023/07/27 07:01:38;;;;;;;3.50;2.53;;;15.90;99.90;;;;;;4939679;28;20058;-72
2023/07/27 07:04:05;;;;;;;2.40;2.15;;;15.90;99.90;;;;;;4940038;28;20037;-72
2023/07/27 07:06:31;;;;;;;3.38;3.08;;;15.90;99.90;;;;;;4959220;28;20053;-72
2023/07/27 07:08:59;;;;;;;3.17;2.65;;;16.00;99.90;;;;;;4961462;28;20420;-72
2023/07/27 07:11:25;;;;;;;4.55;2.75;;;16.00;99.90;;;;;;4942112;28;20037;-72
2023/07/27 07:13:51;;;;;;;3.13;2.80;;;16.00;99.90;;;;;;4941387;28;20045;-72
2023/07/27 07:16:18;;;;;;;3.58;2.33;;;16.10;99.90;;;;;;4935360;28;20027;-72
2023/07/27 07:18:44;;;;;;;3.20;2.90;;;16.10;99.90;;;;;;4955151;28;20018;-72
2023/07/27 07:21:11;;;;;;;4.57;4.18;;;16.10;99.90;;;;;;4957955;28;20025;-72
2023/07/27 07:23:37;;;;;;;2.70;2.50;;;16.10;99.90;;;;;;4941414;28;20038;-72
2023/07/27 07:26:03;;;;;;;2.50;2.30;;;16.20;99.90;;;;;;4941588;28;20038;-72
2023/07/27 07:28:30;;;;;;;2.42;2.10;;;16.20;99.90;;;;;;4942466;28;20035;-73
2023/07/27 07:30:56;;;;;;;2.88;2.38;;;16.20;99.90;;;;;;4940633;28;20042;-72
2023/07/27 07:33:22;;;;;;;4.50;4.05;;;16.30;99.90;;;;;;4963330;28;20022;-73
2023/07/27 07:35:49;;;;;;;4.47;3.80;;;16.40;99.90;;;;;;4942688;28;20478;-73
2023/07/27 07:38:15;;;;;;;3.35;2.63;;;16.40;99.90;;;;;;4952498;28;20043;-72
2023/07/27 07:40:44;;;;;;;3.30;2.95;;;16.40;99.90;;;;;;4939001;28;20039;-72
2023/07/27 07:43:10;;;;;;;2.35;2.08;;;16.50;99.90;;;;;;4941738;28;20049;-73
2023/07/27 07:45:37;;;;;;;4.22;3.83;;;16.50;99.90;;;;;;4938898;28;20062;-72
2023/07/27 07:48:04;;;;;;;3.95;3.58;;;16.50;99.90;;;;;;4956002;28;20482;-72
2023/07/27 07:50:36;;;;;;;4.28;3.72;;;16.50;99.90;;;;;;4939076;28;20031;-72
2023/07/27 07:53:05;;;;;;;3.20;2.90;;;16.50;99.90;;;;;;4928345;28;20037;-72
2023/07/27 07:55:38;;;;;;;2.42;2.22;;;16.60;99.90;;;;;;4925164;28;20051;-71
2023/07/27 07:58:04;;;;;;;2.45;1.92;;;16.60;99.90;;;;;;4940596;28;20050;-79
2023/07/27 08:00:31;;;;;;;2.63;2.33;;;16.70;99.90;;;;;;4921982;28;20490;-72
2023/07/27 08:03:00;;;;;;;4.47;4.07;;;16.80;99.90;;;;;;4939875;28;20043;-73
2023/07/27 08:05:26;;;;;;;4.90;4.50;;;16.90;99.90;;;;;;4937715;28;20038;-73
2023/07/27 08:07:53;;;;;;;3.67;3.05;;;16.90;99.90;;;;;;4937276;28;20049;-73
2023/07/27 08:10:19;;;;;;;4.85;4.28;;;16.90;99.90;;;;;;4941531;28;20039;-72
2023/07/27 08:12:46;;;;;;;4.13;3.72;;;17.00;99.90;;;;;;4968353;28;20027;-73
2023/07/27 08:15:12;;;;;;;2.58;2.38;;;17.00;99.90;;;;;;4939943;28;20041;-73
2023/07/27 08:17:38;;;;;;;2.30;1.88;;;17.00;99.90;;;;;;4938864;28;20032;-73
2023/07/27 08:20:06;;;;;;;11.38;8.10;;;17.10;99.90;;;;;;4939224;28;20063;-73
2023/07/27 08:22:32;;;;;;;4.78;4.28;;;17.10;99.90;;;;;;4956152;28;20047;-73
2023/07/27 08:24:58;;;;;;;5.40;4.90;;;17.20;99.90;;;;;;4936518;28;20049;-73
2023/07/27 08:27:25;;;;;;;3.67;3.38;;;17.30;99.90;;;;;;4936778;28;20370;-72
2023/07/27 08:29:52;;;;;;;3.00;2.80;;;17.30;99.90;;;;;;4943311;28;20035;-71
2023/07/27 08:32:18;;;;;;;2.38;2.17;;;17.40;99.90;;;;;;4944137;28;20360;-71
2023/07/27 08:34:45;;;;;;;2.45;2.25;;;17.40;99.90;;;;;;4943592;28;20023;-71
2023/07/27 08:37:11;;;;;;;2.70;2.00;;;17.40;99.90;;;;;;4939515;28;21000;-72
2023/07/27 08:39:37;;;;;;;2.67;2.47;;;17.40;99.90;;;;;;4938606;28;20034;-72
2023/07/27 08:42:04;;;;;;;3.17;2.88;;;17.50;99.90;;;;;;4936867;28;20045;-71
2023/07/27 08:44:31;;;;;;;3.67;3.38;;;17.50;99.90;;;;;;4956385;28;20038;-71
2023/07/27 08:47:01;;;;;;;3.47;3.15;;;17.50;99.90;;;;;;4936196;28;20081;-71
2023/07/27 08:57:55;;;;;;;3.42;3.13;;;17.70;99.90;;;;;;4954593;28;20041;-71
2023/07/27 09:00:22;;;;;;;4.07;3.70;;;17.80;99.90;;;;;;4939420;28;20588;-71
2023/07/27 09:02:48;;;;;;;3.70;3.40;;;17.80;99.90;;;;;;4955630;28;20042;-71
2023/07/27 09:05:15;;;;;;;3.70;3.40;;;17.90;99.90;;;;;;4936510;28;20034;-71
2023/07/27 09:07:41;;;;;;;2.30;2.10;;;17.90;99.90;;;;;;4953422;28;20045;-71
2023/07/27 09:10:09;;;;;;;3.60;3.03;;;17.90;99.90;;;;;;4959438;28;20038;-72
2023/07/27 09:12:35;;;;;;;3.40;3.10;;;18.00;99.90;;;;;;4922893;28;20375;-71
2023/07/27 09:15:21;;;;;;;2.97;2.78;;;18.00;99.90;;;;;;4957822;28;22368;-72
2023/07/27 09:17:48;;;;;;;3.88;3.58;;;17.90;99.90;;;;;;4934490;28;20433;-72
2023/07/27 09:20:15;;;;;;;3.60;2.55;;;18.00;99.90;;;;;;4923397;28;20061;-71
2023/07/27 09:22:42;;;;;;;2.90;2.58;;;17.90;99.90;;;;;;4956257;28;20039;-71
2023/07/27 09:25:08;;;;;;;3.53;3.00;;;18.00;99.90;;;;;;4942698;28;20053;-70
2023/07/27 09:27:43;;;;;;;3.42;3.22;;;18.00;99.90;;;;;;4923458;28;20053;-71
2023/07/27 09:30:10;;;;;;;3.03;2.70;;;18.00;99.90;;;;;;4907609;28;20042;-71
2023/07/27 09:32:37;;;;;;;3.97;3.65;;;18.10;99.90;;;;;;4952758;28;21270;-71
2023/07/27 09:35:04;;;;;;;3.42;3.13;;;18.10;99.90;;;;;;4957769;28;20043;-71
2023/07/27 09:37:30;;;;;;;4.40;4.00;;;18.00;99.90;;;;;;4954111;28;20031;-71
2023/07/27 09:40:12;;;;;;;4.68;3.28;;;18.10;99.90;;;;;;4939490;28;20022;-72
2023/07/27 09:42:40;;;;;;;4.60;3.88;;;18.10;99.90;;;;;;4940020;28;20051;-72
2023/07/27 09:45:08;;;;;;;5.22;2.80;;;18.10;99.90;;;;;;4954965;28;20470;-72
2023/07/27 09:47:35;;;;;;;3.40;3.03;;;18.10;99.90;;;;;;4953980;28;20722;-72
2023/07/27 09:50:02;;;;;;;5.40;3.50;;;18.10;99.90;;;;;;4953059;28;20038;-73
2023/07/27 09:52:29;;;;;;;4.28;3.88;;;18.20;99.90;;;;;;4939900;28;20041;-72
2023/07/27 09:54:58;;;;;;;3.40;3.10;;;18.20;99.90;;;;;;4941452;28;20034;-72
2023/07/27 09:57:26;;;;;;;5.47;4.22;;;18.30;99.90;;;;;;4949436;28;20038;-72
2023/07/27 09:59:52;;;;;;;5.40;4.38;;;18.30;99.90;;;;;;4950878;28;20491;-72
2023/07/27 10:02:21;;;;;;;5.35;3.50;;;18.30;99.90;;;;;;4953521;28;20046;-72
2023/07/27 10:04:51;;;;;;;7.68;4.43;;;18.40;99.90;;;;;;4937574;28;20053;-72
2023/07/27 10:07:22;;;;;;;4.45;4.05;;;18.40;99.90;;;;;;4933860;28;20489;-72
2023/07/27 10:10:08;;;;;;;6.20;5.60;;;18.50;99.90;;;;;;4938136;28;21409;-72
2023/07/27 10:12:35;;;;;;;6.38;4.93;;;18.50;99.90;;;;;;4936985;28;20228;-72
2023/07/27 10:15:20;;;;;;;6.65;6.05;;;18.60;99.90;;;;;;4954700;28;20498;-72
2023/07/27 10:17:54;;;;;;;6.32;5.82;;;18.60;99.90;;;;;;4952372;28;20041;-72
2023/07/27 10:20:26;;;;;;;5.38;4.93;;;18.70;99.90;;;;;;4952481;28;20138;-73
2023/07/27 10:23:12;;;;;;;7.97;6.90;;;18.80;99.90;;;;;;4964320;28;20038;-72
2023/07/27 10:25:56;;;;;;;8.50;7.75;;;18.80;99.90;;;;;;4955056;28;20031;-73
2023/07/27 10:28:47;;;;;;;6.97;6.38;;;18.80;99.90;;;;;;4937144;28;20039;-73
2023/07/27 10:31:17;;;;;;;6.35;5.43;;;18.90;99.90;;;;;;4936401;28;20047;-74
2023/07/27 10:34:11;;;;;;;6.57;5.90;;;18.90;99.90;;;;;;4955144;28;20038;-74
2023/07/27 10:36:47;;;;;;;7.32;6.63;;;18.90;99.90;;;;;;4951643;28;20557;-73
2023/07/27 10:39:21;;;;;;;6.50;5.97;;;19.00;99.90;;;;;;4953922;28;20528;-72
2023/07/27 10:42:04;;;;;;;7.78;7.07;;;19.00;99.90;;;;;;4922017;28;20030;-72
2023/07/27 10:44:43;;;;;;;6.50;6.00;;;19.00;99.90;;;;;;4935763;28;20055;-72
2023/07/27 10:47:11;;;;;;;5.13;4.72;;;19.00;99.90;;;;;;4938931;28;20702;-72
2023/07/27 10:49:40;;;;;;;7.53;6.82;;;19.00;99.90;;;;;;4951950;28;20023;-72
2023/07/27 10:52:09;;;;;;;7.93;7.25;;;19.00;99.90;;;;;;4924404;28;20046;-72
2023/07/27 10:54:39;;;;;;;8.20;7.40;;;19.00;99.90;;;;;;4952994;28;20042;-72
2023/07/27 10:57:08;;;;;;;7.88;7.20;;;19.00;99.90;;;;;;4936999;28;20454;-72
2023/07/27 10:59:38;;;;;;;7.20;6.60;;;19.10;99.90;;;;;;4934248;28;20046;-73
2023/07/27 11:02:15;;;;;;;6.43;5.93;;;19.20;99.90;;;;;;4919399;28;20030;-72
2023/07/27 11:04:42;;;;;;;4.95;4.55;;;19.20;99.90;;;;;;4962971;28;20383;-74
2023/07/27 11:07:10;;;;;;;8.88;7.97;;;19.20;99.90;;;;;;4932522;28;20096;-74
2023/07/27 11:09:43;;;;;;;10.30;9.30;;;19.20;99.90;;;;;;4948767;28;20050;-73
2023/07/27 11:12:09;;;;;;;8.50;7.80;;;19.10;99.90;;;;;;4938982;28;20367;-73
2023/07/27 11:14:36;;;;;;;8.25;7.50;;;19.10;99.90;;;;;;4932875;28;20045;-73
2023/07/27 11:17:03;;;;;;;7.97;7.38;;;19.10;99.90;;;;;;4917378;28;21665;-72
2023/07/27 11:19:29;;;;;;;7.35;6.75;;;19.20;99.90;;;;;;4949726;28;20034;-75
2023/07/27 11:21:56;;;;;;;9.18;8.25;;;19.30;99.90;;;;;;4934764;28;20412;-72
2023/07/27 11:24:23;;;;;;;8.10;7.40;;;19.40;99.90;;;;;;4950071;28;20039;-74
2023/07/27 11:26:50;;;;;;;8.95;8.25;;;19.50;99.90;;;;;;4933478;28;20038;-73
2023/07/27 11:29:17;;;;;;;6.30;5.82;;;19.50;99.90;;;;;;4934503;28;20042;-71
2023/07/27 11:31:54;;;;;;;6.68;6.18;;;19.50;99.90;;;;;;4952230;28;20495;-73
2023/07/27 11:34:23;;;;;;;8.05;7.35;;;19.50;99.90;;;;;;4952261;28;20478;-73
2023/07/27 11:36:52;;;;;;;7.15;6.38;;;19.50;99.90;;;;;;4949318;28;20034;-73
2023/07/27 11:39:19;;;;;;;6.55;5.95;;;19.50;99.90;;;;;;4932971;28;20046;-73
2023/07/27 11:41:48;;;;;;;6.40;5.45;;;19.50;99.90;;;;;;4928572;28;20037;-73
2023/07/27 11:44:16;;;;;;;8.30;7.50;;;19.50;99.90;;;;;;4928479;28;21017;-72
2023/07/27 11:46:47;;;;;;;10.65;9.50;;;19.50;99.90;;;;;;4949060;28;20035;-76
2023/07/27 11:49:18;;;;;;;9.38;8.57;;;19.40;99.90;;;;;;4935574;28;20022;-72
2023/07/27 11:51:46;;;;;;;7.68;7.03;;;19.40;99.90;;;;;;4935071;28;20420;-72
2023/07/27 11:54:27;;;;;;;6.57;5.95;;;19.40;99.90;;;;;;4946142;28;20039;-75
2023/07/27 11:56:56;;;;;;;6.30;5.80;;;19.40;99.90;;;;;;4929949;28;20430;-75
2023/07/27 11:59:23;;;;;;;6.60;6.00;;;19.50;99.90;;;;;;4920313;28;20042;-76
2023/07/27 12:01:50;;;;;;;6.05;5.50;;;19.60;99.90;;;;;;4932784;28;20034;-73
2023/07/27 12:04:19;;;;;;;6.38;5.88;;;19.70;99.90;;;;;;4929950;28;20600;-73
2023/07/27 12:06:45;;;;;;;6.00;5.50;;;19.70;99.90;;;;;;4949399;28;20065;-72
2023/07/27 12:09:12;;;;;;;7.30;6.60;;;19.80;99.90;;;;;;4933531;28;20039;-72
2023/07/27 12:11:39;;;;;;;6.25;5.75;;;19.90;99.90;;;;;;4932551;28;20038;-72
2023/07/27 12:14:10;;;;;;;6.93;6.22;;;19.90;99.90;;;;;;4920159;28;20102;-75
2023/07/27 12:16:41;;;;;;;7.40;6.80;;;20.00;99.90;;;;;;4946988;28;20031;-72
2023/07/27 12:19:08;;;;;;;5.63;5.13;;;20.00;99.90;;;;;;4933379;28;20407;-72
2023/07/27 12:21:36;;;;;;;7.10;6.50;;;20.00;99.90;;;;;;4961607;28;20023;-72
2023/07/27 12:24:10;;;;;;;6.78;6.18;;;20.00;99.90;;;;;;4936000;28;20034;-72
2023/07/27 12:26:37;;;;;;;5.97;5.53;;;19.90;99.90;;;;;;4951120;28;20055;-71
2023/07/27 12:29:04;;;;;;;5.13;4.72;;;19.90;99.90;;;;;;4951092;28;20042;-71
2023/07/27 12:31:31;;;;;;;4.72;4.32;;;19.90;99.90;;;;;;4906515;28;20395;-72
2023/07/27 12:33:57;;;;;;;4.93;4.53;;;19.90;99.90;;;;;;4950871;28;20031;-72
2023/07/27 12:36:24;;;;;;;5.45;5.05;;;19.90;99.90;;;;;;4936729;28;23400;-71
2023/07/27 12:38:50;;;;;;;6.38;5.90;;;19.90;99.90;;;;;;4951368;28;20548;-72
2023/07/27 12:41:17;;;;;;;6.50;6.00;;;20.00;99.90;;;;;;4952664;28;20700;-71
2023/07/27 12:43:43;;;;;;;6.45;5.88;;;20.00;99.90;;;;;;4937097;28;20035;-71
2023/07/27 12:46:10;;;;;;;6.35;5.85;;;20.00;99.90;;;;;;4919597;28;20393;-71
2023/07/27 12:48:37;;;;;;;5.38;4.90;;;20.00;99.90;;;;;;4951139;28;20027;-72
2023/07/27 12:51:04;;;;;;;5.25;4.85;;;20.10;99.90;;;;;;4920731;28;20018;-72
2023/07/27 12:53:30;;;;;;;6.20;5.60;;;20.10;99.90;;;;;;4951263;28;20031;-72
2023/07/27 12:55:56;;;;;;;4.45;4.15;;;20.10;99.90;;;;;;4939134;28;20460;-72